Time;durP1;ratioP1;P1;durP2;ratioP2;P2;SDS_P1;SDS_P2;PMS_P1;PMS_P2;Temp;Humidity;BMP_temperature;BMP_pressure;BME280_temperature;BME280_humidity;BME280_pressure;Samples;Min_cycle;Max_cycle;Signal;HPM_P1;HPM_P2
2020/12/08 00:00:15;;;;;;;20.53;10.97;;;4.00;99.90;;;;;;4990473;28;20418;-66
2020/12/08 00:02:42;;;;;;;18.37;10.33;;;4.00;99.90;;;;;;4990876;28;20046;-66
2020/12/08 00:05:08;;;;;;;18.87;10.53;;;4.00;99.90;;;;;;4992518;28;20113;-66
2020/12/08 00:07:36;;;;;;;21.60;11.60;;;4.00;99.90;;;;;;4993388;28;20506;-67
2020/12/08 00:10:03;;;;;;;28.03;12.83;;;3.90;99.90;;;;;;4991991;28;20519;-69
2020/12/08 00:12:30;;;;;;;28.83;13.90;;;3.90;99.90;;;;;;4991121;28;20050;-66
2020/12/08 00:14:57;;;;;;;25.27;12.20;;;4.00;99.90;;;;;;4989774;28;20155;-66
2020/12/08 00:17:23;;;;;;;24.33;10.90;;;4.00;99.90;;;;;;4991270;28;20479;-69
2020/12/08 00:19:50;;;;;;;21.30;10.80;;;3.90;99.90;;;;;;4989908;28;20057;-68
2020/12/08 00:22:17;;;;;;;26.90;12.27;;;3.90;99.90;;;;;;4990480;28;20058;-66
2020/12/08 00:24:44;;;;;;;25.50;12.13;;;3.90;99.90;;;;;;4991116;28;20403;-66
2020/12/08 00:27:12;;;;;;;24.07;11.33;;;4.00;99.90;;;;;;4990153;28;20527;-66
2020/12/08 00:29:39;;;;;;;20.17;10.93;;;3.90;99.90;;;;;;4991714;28;20491;-66
2020/12/08 00:32:06;;;;;;;21.07;10.97;;;3.90;99.90;;;;;;4989738;28;20069;-66
2020/12/08 00:34:33;;;;;;;20.43;11.03;;;4.00;99.90;;;;;;4991670;28;20050;-66
2020/12/08 00:37:00;;;;;;;24.47;12.23;;;3.90;99.90;;;;;;4991336;28;20054;-67
2020/12/08 00:39:27;;;;;;;21.87;11.33;;;3.80;99.90;;;;;;4990908;28;20054;-66
2020/12/08 00:41:54;;;;;;;21.30;11.40;;;3.80;99.90;;;;;;4989662;28;20061;-66
2020/12/08 00:44:21;;;;;;;25.10;12.40;;;3.90;99.90;;;;;;4983193;28;20054;-66
2020/12/08 00:46:48;;;;;;;23.10;11.63;;;3.90;99.90;;;;;;4990456;28;20311;-66
2020/12/08 00:49:15;;;;;;;25.00;13.00;;;3.90;99.90;;;;;;4987053;28;20054;-67
2020/12/08 00:51:42;;;;;;;23.50;11.70;;;3.90;99.90;;;;;;4989764;28;20050;-66
2020/12/08 00:54:08;;;;;;;22.60;12.07;;;4.00;99.90;;;;;;4989090;28;20042;-67
2020/12/08 00:56:35;;;;;;;23.27;12.27;;;4.00;99.90;;;;;;4989502;28;20403;-67
2020/12/08 00:59:03;;;;;;;24.60;13.07;;;4.00;99.90;;;;;;4990341;28;20057;-70
2020/12/08 01:01:30;;;;;;;24.03;12.00;;;4.00;99.90;;;;;;4988142;28;20070;-66
2020/12/08 01:03:58;;;;;;;20.83;10.67;;;3.90;99.90;;;;;;4988667;28;20050;-67
2020/12/08 01:06:24;;;;;;;20.27;11.43;;;3.90;99.90;;;;;;4986417;28;20462;-68
2020/12/08 01:08:51;;;;;;;22.07;11.47;;;4.00;99.90;;;;;;4987534;28;20076;-66
2020/12/08 01:11:18;;;;;;;22.53;12.17;;;3.90;99.90;;;;;;4987903;28;20058;-66
2020/12/08 01:13:44;;;;;;;24.90;12.23;;;3.90;99.90;;;;;;4987858;28;20410;-70
2020/12/08 01:16:12;;;;;;;26.70;13.07;;;3.90;99.90;;;;;;4989764;28;20050;-67
2020/12/08 01:18:38;;;;;;;28.40;12.23;;;3.90;99.90;;;;;;4988678;28;20407;-68
2020/12/08 01:21:05;;;;;;;23.47;13.03;;;3.90;99.90;;;;;;4987353;28;20058;-66
2020/12/08 01:23:32;;;;;;;22.20;12.30;;;3.90;99.90;;;;;;4988694;28;20046;-66
2020/12/08 01:25:59;;;;;;;23.07;11.93;;;3.90;99.90;;;;;;4989849;28;20051;-70
2020/12/08 01:28:25;;;;;;;20.50;11.47;;;3.90;99.90;;;;;;4989161;28;20150;-66
2020/12/08 01:30:52;;;;;;;24.93;12.80;;;3.90;99.90;;;;;;4988539;28;20073;-67
2020/12/08 01:33:19;;;;;;;23.60;12.43;;;3.90;99.90;;;;;;4986353;28;20511;-70
2020/12/08 01:35:46;;;;;;;25.57;12.67;;;3.90;99.90;;;;;;4988041;28;20113;-69
2020/12/08 01:38:13;;;;;;;24.17;12.57;;;3.90;99.90;;;;;;4986680;28;20530;-70
2020/12/08 01:40:40;;;;;;;24.00;12.33;;;3.90;99.90;;;;;;4988293;28;20050;-66
2020/12/08 01:43:06;;;;;;;20.87;11.73;;;3.90;99.90;;;;;;4990019;28;20046;-66
2020/12/08 01:45:34;;;;;;;25.23;12.23;;;4.00;99.90;;;;;;4989646;28;20049;-68
2020/12/08 01:48:00;;;;;;;25.67;12.23;;;3.90;99.90;;;;;;4989204;28;20084;-66
2020/12/08 01:50:28;;;;;;;24.27;12.70;;;3.90;99.90;;;;;;4989177;28;20046;-69
2020/12/08 01:52:57;;;;;;;22.67;12.17;;;3.90;99.90;;;;;;4988787;28;20058;-70
2020/12/08 01:55:25;;;;;;;24.20;12.83;;;3.90;99.90;;;;;;4989804;28;20039;-68
2020/12/08 01:57:52;;;;;;;26.50;13.07;;;3.90;99.90;;;;;;4988906;28;20058;-67
2020/12/08 02:00:19;;;;;;;24.53;12.07;;;3.90;99.90;;;;;;4989134;28;20081;-66
2020/12/08 02:02:45;;;;;;;25.33;13.07;;;3.90;99.90;;;;;;4988845;28;20050;-69
2020/12/08 02:05:12;;;;;;;20.43;11.80;;;3.80;99.90;;;;;;4989298;28;20047;-66
2020/12/08 02:07:44;;;;;;;26.00;13.57;;;3.90;99.90;;;;;;4989658;28;20066;-66
2020/12/08 02:10:10;;;;;;;24.23;12.10;;;3.90;99.90;;;;;;4986613;28;20046;-66
2020/12/08 02:12:37;;;;;;;23.67;12.07;;;3.80;99.90;;;;;;4989188;28;20055;-66
2020/12/08 02:15:04;;;;;;;23.97;12.33;;;3.80;99.90;;;;;;4986251;28;20054;-69
2020/12/08 02:17:30;;;;;;;25.53;13.13;;;3.80;99.90;;;;;;4989552;28;20504;-67
2020/12/08 02:19:58;;;;;;;23.07;12.23;;;3.80;99.90;;;;;;4988770;28;20065;-67
2020/12/08 02:22:24;;;;;;;20.97;11.57;;;3.90;99.90;;;;;;4981176;28;20042;-66
2020/12/08 02:24:51;;;;;;;23.87;12.77;;;3.80;99.90;;;;;;4989230;28;20050;-67
2020/12/08 02:27:20;;;;;;;26.57;12.13;;;3.90;99.90;;;;;;4989227;28;20050;-70
2020/12/08 02:29:46;;;;;;;22.67;12.17;;;3.90;99.90;;;;;;4986891;28;20108;-67
2020/12/08 02:32:13;;;;;;;22.63;12.17;;;3.80;99.90;;;;;;4987761;28;20054;-67
2020/12/08 02:34:40;;;;;;;26.40;12.90;;;3.90;99.90;;;;;;4989258;28;20054;-66
2020/12/08 02:37:07;;;;;;;25.90;12.90;;;3.90;99.90;;;;;;4988209;28;20046;-67
2020/12/08 02:39:34;;;;;;;22.60;13.00;;;3.80;99.90;;;;;;4992805;28;20065;-66
2020/12/08 02:42:00;;;;;;;23.07;12.87;;;3.80;99.90;;;;;;4992298;28;20050;-70
2020/12/08 02:44:27;;;;;;;23.93;11.70;;;3.80;99.90;;;;;;4991105;28;20046;-66
2020/12/08 02:46:53;;;;;;;21.93;11.27;;;3.80;99.90;;;;;;4992817;28;20051;-66
2020/12/08 02:49:20;;;;;;;23.70;12.07;;;3.80;99.90;;;;;;4992043;28;20058;-70
2020/12/08 02:51:47;;;;;;;24.83;12.53;;;3.80;99.90;;;;;;4992327;28;20487;-66
2020/12/08 02:54:14;;;;;;;26.23;13.17;;;3.80;99.90;;;;;;4991358;28;20046;-69
2020/12/08 02:56:41;;;;;;;22.83;12.77;;;3.80;99.90;;;;;;4991982;28;20056;-67
2020/12/08 02:59:07;;;;;;;25.63;12.83;;;3.80;99.90;;;;;;4991618;28;20419;-67
2020/12/08 03:01:34;;;;;;;23.57;13.23;;;3.80;99.90;;;;;;4991986;28;20058;-66
2020/12/08 03:04:01;;;;;;;22.27;11.90;;;3.80;99.90;;;;;;4992569;28;20054;-68
2020/12/08 03:06:27;;;;;;;23.40;12.00;;;3.80;99.90;;;;;;4991150;28;20056;-67
2020/12/08 03:08:54;;;;;;;25.47;12.77;;;3.80;99.90;;;;;;4992720;28;20054;-66
2020/12/08 03:11:29;;;;;;;22.13;10.87;;;3.80;99.90;;;;;;4990704;28;20050;-66
2020/12/08 03:13:56;;;;;;;25.40;13.63;;;3.80;99.90;;;;;;4991705;28;20114;-67
2020/12/08 03:16:22;;;;;;;23.83;12.07;;;3.80;99.90;;;;;;4988708;28;20038;-68
2020/12/08 03:18:49;;;;;;;27.27;13.77;;;3.80;99.90;;;;;;4990248;28;20050;-68
2020/12/08 03:21:16;;;;;;;25.00;12.47;;;3.80;99.90;;;;;;4991591;28;20054;-65
2020/12/08 03:23:42;;;;;;;23.13;12.40;;;3.80;99.90;;;;;;4990971;28;20050;-67
2020/12/08 03:26:09;;;;;;;24.87;12.77;;;3.80;99.90;;;;;;4992221;28;20054;-66
2020/12/08 03:28:36;;;;;;;23.33;12.07;;;3.80;99.90;;;;;;4990983;28;20052;-67
2020/12/08 03:31:03;;;;;;;24.67;12.73;;;3.80;99.90;;;;;;4990986;28;20054;-70
2020/12/08 03:33:30;;;;;;;26.57;12.67;;;3.70;99.90;;;;;;4990988;28;20054;-67
2020/12/08 03:35:56;;;;;;;25.83;13.00;;;3.80;99.90;;;;;;4991291;28;20057;-67
2020/12/08 03:38:23;;;;;;;23.63;12.80;;;3.80;99.90;;;;;;4992188;28;20061;-66
2020/12/08 03:40:50;;;;;;;27.50;13.60;;;3.80;99.90;;;;;;4990303;28;20050;-67
2020/12/08 03:43:16;;;;;;;23.00;12.03;;;3.80;99.90;;;;;;4992566;28;20046;-67
2020/12/08 03:45:44;;;;;;;24.87;12.70;;;3.80;99.90;;;;;;4992665;28;20046;-66
2020/12/08 03:48:10;;;;;;;26.10;14.17;;;3.80;99.90;;;;;;4992272;28;20057;-68
2020/12/08 03:50:40;;;;;;;24.77;12.80;;;3.80;99.90;;;;;;4989676;28;20053;-67
2020/12/08 03:53:06;;;;;;;26.57;12.83;;;3.80;99.90;;;;;;4991932;28;20058;-67
2020/12/08 03:55:33;;;;;;;25.30;13.53;;;3.80;99.90;;;;;;4990697;28;20054;-69
2020/12/08 03:57:59;;;;;;;27.90;13.33;;;3.80;99.90;;;;;;4991818;28;20050;-66
2020/12/08 04:00:26;;;;;;;25.60;12.90;;;3.80;99.90;;;;;;4991457;28;20733;-67
2020/12/08 04:02:54;;;;;;;26.87;12.60;;;3.80;99.90;;;;;;4990518;28;20061;-66
2020/12/08 04:05:20;;;;;;;26.27;12.93;;;3.80;99.90;;;;;;4991535;28;20042;-66
2020/12/08 04:07:47;;;;;;;28.30;12.73;;;3.80;99.90;;;;;;4990712;28;20058;-66
2020/12/08 04:10:14;;;;;;;24.50;12.33;;;3.80;99.90;;;;;;4990682;28;20061;-70
2020/12/08 04:12:41;;;;;;;24.73;13.27;;;3.80;99.90;;;;;;4990219;28;20455;-67
2020/12/08 04:15:07;;;;;;;27.73;13.33;;;3.80;99.90;;;;;;4990839;28;20050;-66
2020/12/08 04:17:34;;;;;;;24.33;11.90;;;3.80;99.90;;;;;;4991279;28;20621;-66
2020/12/08 04:20:01;;;;;;;26.67;14.23;;;3.80;99.90;;;;;;4990119;28;20050;-68
2020/12/08 04:22:28;;;;;;;26.13;13.20;;;3.80;99.90;;;;;;4990286;28;20053;-66
2020/12/08 04:24:55;;;;;;;26.23;13.30;;;3.70;99.90;;;;;;4989810;28;20053;-66
2020/12/08 04:27:21;;;;;;;26.93;13.13;;;3.80;99.90;;;;;;4991179;28;20046;-67
2020/12/08 04:29:48;;;;;;;26.13;13.33;;;3.80;99.90;;;;;;4989620;28;20050;-66
2020/12/08 04:32:15;;;;;;;26.43;13.67;;;3.80;99.90;;;;;;4990659;28;20046;-67
2020/12/08 04:34:41;;;;;;;24.97;13.93;;;3.80;99.90;;;;;;4991040;28;20069;-68
2020/12/08 04:37:12;;;;;;;25.07;13.57;;;3.80;99.90;;;;;;4989992;28;20048;-66
2020/12/08 04:39:38;;;;;;;27.00;14.10;;;3.80;99.90;;;;;;4990816;28;20050;-65
2020/12/08 04:42:05;;;;;;;29.70;13.77;;;3.80;99.90;;;;;;4988911;28;20422;-67
2020/12/08 04:44:33;;;;;;;28.10;12.87;;;3.80;99.90;;;;;;4990692;28;20517;-67
2020/12/08 04:46:59;;;;;;;26.57;14.00;;;3.80;99.90;;;;;;4989598;28;20050;-67
2020/12/08 04:49:27;;;;;;;24.87;13.67;;;3.80;99.90;;;;;;4990792;28;20054;-65
2020/12/08 04:51:53;;;;;;;29.47;14.57;;;3.80;99.90;;;;;;4989239;28;20451;-69
2020/12/08 04:54:21;;;;;;;26.33;12.80;;;3.80;99.90;;;;;;4989674;28;20046;-67
2020/12/08 04:56:49;;;;;;;28.57;13.57;;;3.80;99.90;;;;;;4990530;28;20054;-67
2020/12/08 04:59:22;;;;;;;25.40;13.27;;;3.80;99.90;;;;;;4989726;28;20129;-68
2020/12/08 05:01:48;;;;;;;30.30;13.90;;;3.80;99.90;;;;;;4988942;28;20050;-66
2020/12/08 05:04:24;;;;;;;31.37;15.70;;;3.90;99.90;;;;;;4989115;28;20140;-67
2020/12/08 05:07:06;;;;;;;28.47;14.07;;;3.90;99.90;;;;;;4990094;28;20050;-66
2020/12/08 05:09:44;;;;;;;27.87;14.37;;;3.90;99.90;;;;;;4984115;28;20054;-66
2020/12/08 05:12:11;;;;;;;34.33;15.27;;;4.10;99.90;;;;;;4989400;28;20058;-65
2020/12/08 05:14:42;;;;;;;34.10;15.10;;;4.00;99.90;;;;;;4990173;28;20046;-68
2020/12/08 05:17:08;;;;;;;29.53;14.93;;;3.90;99.90;;;;;;4989504;28;20518;-67
2020/12/08 05:19:35;;;;;;;29.97;14.23;;;3.90;99.90;;;;;;4990253;28;20046;-66
2020/12/08 05:22:02;;;;;;;29.33;15.00;;;4.10;99.90;;;;;;4988463;28;20050;-70
2020/12/08 05:24:30;;;;;;;30.23;15.03;;;4.00;99.90;;;;;;4989500;28;20046;-66
2020/12/08 05:26:58;;;;;;;31.13;13.87;;;4.00;99.90;;;;;;4989334;28;20112;-66
2020/12/08 05:29:25;;;;;;;27.00;13.87;;;4.00;99.90;;;;;;4990163;28;20427;-70
2020/12/08 05:31:52;;;;;;;29.83;14.07;;;4.00;99.90;;;;;;4988576;28;20053;-70
2020/12/08 05:34:20;;;;;;;28.00;14.43;;;4.00;99.90;;;;;;4989551;28;20050;-66
2020/12/08 05:36:49;;;;;;;27.77;13.37;;;4.00;99.90;;;;;;4990460;28;20058;-66
2020/12/08 05:39:18;;;;;;;32.43;15.77;;;4.00;99.90;;;;;;4988952;28;20558;-65
2020/12/08 05:41:46;;;;;;;33.07;15.33;;;4.00;99.90;;;;;;4989572;28;20499;-66
2020/12/08 05:44:18;;;;;;;31.60;15.00;;;4.00;99.90;;;;;;4988145;28;20051;-68
2020/12/08 05:46:46;;;;;;;31.57;14.63;;;3.90;99.90;;;;;;4990481;28;20396;-66
2020/12/08 05:49:14;;;;;;;34.97;15.63;;;3.90;99.90;;;;;;4990152;28;20054;-69
2020/12/08 05:51:45;;;;;;;37.10;16.47;;;3.90;99.90;;;;;;4988358;28;20133;-66
2020/12/08 05:54:17;;;;;;;35.60;18.13;;;3.90;99.90;;;;;;4990342;28;20054;-66
2020/12/08 05:56:43;;;;;;;34.17;18.43;;;3.90;99.90;;;;;;4991182;28;20058;-66
2020/12/08 05:59:10;;;;;;;33.70;16.77;;;3.90;99.90;;;;;;4990626;28;20549;-68
2020/12/08 06:01:48;;;;;;;39.57;17.60;;;4.00;99.90;;;;;;4990438;28;20414;-67
2020/12/08 06:04:15;;;;;;;34.30;17.00;;;4.00;99.90;;;;;;4990855;28;20458;-70
2020/12/08 06:06:51;;;;;;;38.57;17.30;;;3.90;99.90;;;;;;4990806;28;20046;-71
2020/12/08 06:09:28;;;;;;;40.15;20.17;;;4.00;99.90;;;;;;4989709;28;20082;-67
2020/12/08 06:11:54;;;;;;;43.45;19.38;;;3.90;99.90;;;;;;4989651;28;20136;-67
2020/12/08 06:14:35;;;;;;;34.90;17.70;;;3.90;99.90;;;;;;4992260;28;20054;-67
2020/12/08 06:17:04;;;;;;;43.90;19.67;;;4.00;99.90;;;;;;4994817;28;20050;-68
2020/12/08 06:19:31;;;;;;;47.30;20.57;;;4.00;99.90;;;;;;4994217;28;20054;-67
2020/12/08 06:21:59;;;;;;;47.00;21.37;;;4.00;99.90;;;;;;4994185;28;20058;-66
2020/12/08 06:24:25;;;;;;;41.13;18.17;;;3.90;99.90;;;;;;4993871;28;20051;-67
2020/12/08 06:26:52;;;;;;;37.10;17.37;;;3.90;99.90;;;;;;4994431;28;20126;-66
2020/12/08 06:29:20;;;;;;;36.07;17.40;;;3.80;99.90;;;;;;4994370;28;20065;-69
2020/12/08 06:31:49;;;;;;;35.80;17.73;;;3.80;99.90;;;;;;4993523;28;20050;-66
2020/12/08 06:34:20;;;;;;;39.07;19.17;;;3.70;99.90;;;;;;4982582;28;20415;-67
2020/12/08 06:36:47;;;;;;;37.70;17.83;;;3.60;99.90;;;;;;4974529;28;20062;-68
2020/12/08 06:39:14;;;;;;;43.13;19.33;;;3.50;99.90;;;;;;4975242;28;20061;-67
2020/12/08 06:41:44;;;;;;;39.40;18.00;;;3.40;99.90;;;;;;4978204;28;20108;-66
2020/12/08 06:44:16;;;;;;;39.57;18.13;;;3.30;99.90;;;;;;4990980;28;20527;-67
2020/12/08 06:46:53;;;;;;;36.83;18.43;;;3.10;99.90;;;;;;4992404;28;20050;-65
2020/12/08 06:49:20;;;;;;;47.30;20.60;;;3.10;99.90;;;;;;4993858;28;20058;-66
2020/12/08 06:51:55;;;;;;;49.20;20.83;;;3.00;99.90;;;;;;4992396;28;20046;-66
2020/12/08 06:54:21;;;;;;;45.70;19.80;;;3.00;99.90;;;;;;4990476;28;20050;-66
2020/12/08 06:56:48;;;;;;;46.03;20.67;;;3.10;99.90;;;;;;4989896;28;20064;-68
2020/12/08 06:59:22;;;;;;;49.47;20.57;;;3.00;99.90;;;;;;4990013;28;20133;-66
2020/12/08 07:01:52;;;;;;;50.90;20.87;;;2.90;99.90;;;;;;4990372;28;20113;-67
2020/12/08 07:04:21;;;;;;;51.57;21.10;;;2.90;99.90;;;;;;4990004;28;20046;-67
2020/12/08 07:06:48;;;;;;;48.37;20.80;;;2.80;99.90;;;;;;4991846;28;20054;-66
2020/12/08 07:09:15;;;;;;;53.43;21.77;;;2.80;99.90;;;;;;4993745;28;20062;-66
2020/12/08 07:11:42;;;;;;;55.37;22.20;;;2.70;99.90;;;;;;4993473;28;20054;-65
2020/12/08 07:14:09;;;;;;;51.40;21.37;;;2.70;99.90;;;;;;4993625;28;20101;-67
2020/12/08 07:16:36;;;;;;;51.27;21.80;;;2.60;99.90;;;;;;4993253;28;20051;-66
2020/12/08 07:19:06;;;;;;;48.10;21.70;;;2.50;99.90;;;;;;4993944;28;20066;-66
2020/12/08 07:21:34;;;;;;;46.93;21.57;;;2.50;99.90;;;;;;4993173;28;20054;-67
2020/12/08 07:24:01;;;;;;;50.27;22.60;;;2.50;99.90;;;;;;4993551;28;20058;-67
2020/12/08 07:26:29;;;;;;;50.27;21.87;;;2.50;99.90;;;;;;4996192;28;20058;-67
2020/12/08 07:28:57;;;;;;;47.03;21.63;;;2.50;99.90;;;;;;4999724;28;20078;-66
2020/12/08 07:31:25;;;;;;;47.87;19.80;;;2.50;99.90;;;;;;4997937;28;20494;-66
2020/12/08 07:33:52;;;;;;;46.87;21.27;;;2.50;99.90;;;;;;4993684;28;20129;-66
2020/12/08 07:36:26;;;;;;;51.73;21.80;;;2.40;99.90;;;;;;4993022;28;20056;-67
2020/12/08 07:38:55;;;;;;;54.43;23.13;;;2.40;99.90;;;;;;4993006;28;20054;-67
2020/12/08 07:41:23;;;;;;;68.00;25.27;;;2.50;99.90;;;;;;4993214;28;20054;-66
2020/12/08 07:43:50;;;;;;;70.10;25.20;;;2.40;99.90;;;;;;4992662;28;20057;-66
2020/12/08 07:46:27;;;;;;;66.60;26.30;;;2.50;99.90;;;;;;4988932;28;20066;-67
2020/12/08 07:49:01;;;;;;;71.63;25.00;;;2.50;99.90;;;;;;4985078;28;20051;-66
2020/12/08 07:51:28;;;;;;;65.30;25.50;;;2.50;99.90;;;;;;4990426;28;20054;-66
2020/12/08 07:53:57;;;;;;;52.80;23.33;;;2.60;99.90;;;;;;4989105;28;20154;-67
2020/12/08 07:56:25;;;;;;;53.23;22.87;;;2.50;99.90;;;;;;4979068;28;20126;-66
2020/12/08 07:58:52;;;;;;;55.17;24.07;;;2.60;99.90;;;;;;4981947;28;20423;-65
2020/12/08 08:01:19;;;;;;;60.27;24.20;;;2.60;99.90;;;;;;4986000;28;20050;-67
2020/12/08 08:03:46;;;;;;;59.40;24.43;;;2.60;99.90;;;;;;4975740;28;20051;-66
2020/12/08 08:06:14;;;;;;;60.70;23.80;;;2.70;99.90;;;;;;4987552;28;20050;-66
2020/12/08 08:08:41;;;;;;;55.97;24.13;;;2.70;99.90;;;;;;4984986;28;20101;-65
2020/12/08 08:11:09;;;;;;;52.17;23.57;;;2.70;99.90;;;;;;4992088;28;20043;-69
2020/12/08 08:13:36;;;;;;;54.50;23.47;;;2.70;99.90;;;;;;4989343;28;20455;-67
2020/12/08 08:16:02;;;;;;;53.57;23.33;;;2.80;99.90;;;;;;4988822;28;20047;-67
2020/12/08 08:18:31;;;;;;;54.63;22.83;;;2.80;99.90;;;;;;4984939;28;20668;-67
2020/12/08 08:20:58;;;;;;;55.23;23.27;;;2.90;99.90;;;;;;4969790;28;20055;-67
2020/12/08 08:23:25;;;;;;;54.63;23.53;;;2.90;99.90;;;;;;4970624;28;20051;-66
2020/12/08 08:25:52;;;;;;;50.60;23.13;;;3.00;99.90;;;;;;4969680;28;20053;-67
2020/12/08 08:28:20;;;;;;;53.43;23.03;;;3.00;99.90;;;;;;4971475;28;20050;-66
2020/12/08 08:30:46;;;;;;;55.17;22.67;;;3.00;99.90;;;;;;4973241;28;20213;-67
2020/12/08 08:33:13;;;;;;;50.33;23.07;;;3.00;99.90;;;;;;4976650;28;20490;-66
2020/12/08 08:35:40;;;;;;;51.87;21.57;;;3.00;99.90;;;;;;4992586;28;20407;-68
2020/12/08 08:38:06;;;;;;;53.40;22.47;;;3.00;99.90;;;;;;4991936;28;20053;-66
2020/12/08 08:40:33;;;;;;;60.93;22.70;;;3.00;99.90;;;;;;4991723;28;20053;-67
2020/12/08 08:43:00;;;;;;;56.37;23.70;;;3.00;99.90;;;;;;4991475;28;20359;-66
2020/12/08 08:45:28;;;;;;;61.23;23.17;;;3.00;99.90;;;;;;4992502;28;20491;-66
2020/12/08 08:47:54;;;;;;;51.30;21.63;;;3.00;99.90;;;;;;4984628;28;20066;-66
2020/12/08 08:50:21;;;;;;;61.47;24.17;;;3.10;99.90;;;;;;4985849;28;20050;-66
2020/12/08 08:52:48;;;;;;;43.80;19.97;;;3.10;99.90;;;;;;4981122;28;20046;-67
2020/12/08 08:55:15;;;;;;;52.73;21.77;;;3.10;99.90;;;;;;4992258;28;20050;-67
2020/12/08 08:57:42;;;;;;;43.83;20.63;;;3.20;99.90;;;;;;4991975;28;20058;-66
2020/12/08 09:00:10;;;;;;;39.70;18.90;;;3.40;99.90;;;;;;4990652;28;20050;-68
2020/12/08 09:02:38;;;;;;;36.93;18.17;;;3.50;99.90;;;;;;4991876;28;20054;-66
2020/12/08 09:05:06;;;;;;;34.20;17.00;;;3.80;99.90;;;;;;4991451;28;20058;-67
2020/12/08 09:07:33;;;;;;;29.87;16.10;;;4.30;99.90;;;;;;4984992;28;20499;-66
2020/12/08 09:10:01;;;;;;;26.60;15.00;;;4.90;99.90;;;;;;4990695;28;20055;-66
2020/12/08 09:12:28;;;;;;;30.03;14.57;;;5.40;99.90;;;;;;4989599;28;20042;-67
2020/12/08 09:14:57;;;;;;;25.27;14.33;;;5.80;99.90;;;;;;4990011;28;20435;-68
2020/12/08 09:17:24;;;;;;;26.23;14.25;;;6.30;99.90;;;;;;4975139;28;20058;-67
2020/12/08 09:19:52;;;;;;;26.20;13.95;;;6.70;99.90;;;;;;4984676;28;20066;-66
2020/12/08 09:22:18;;;;;;;25.67;13.95;;;7.20;99.90;;;;;;4981035;28;20060;-67
2020/12/08 09:24:45;;;;;;;27.50;15.20;;;7.80;99.90;;;;;;4977919;28;20492;-68
2020/12/08 09:27:14;;;;;;;28.00;15.25;;;8.20;99.90;;;;;;4986866;28;20414;-66
2020/12/08 09:29:40;;;;;;;25.63;14.55;;;8.60;99.90;;;;;;4987114;28;20450;-66
2020/12/08 09:32:07;;;;;;;27.50;15.45;;;8.90;99.90;;;;;;4982830;28;20419;-67
2020/12/08 09:34:34;;;;;;;30.80;14.70;;;9.20;99.90;;;;;;4990248;28;20047;-67
2020/12/08 09:37:02;;;;;;;28.00;15.50;;;9.70;99.90;;;;;;4987007;28;20054;-69
2020/12/08 09:39:29;;;;;;;32.10;14.55;;;9.80;99.90;;;;;;4988587;28;20061;-69
2020/12/08 09:41:56;;;;;;;25.42;14.75;;;10.10;99.90;;;;;;4989403;28;20521;-67
2020/12/08 09:44:23;;;;;;;24.27;14.77;;;10.10;99.90;;;;;;4991525;28;20062;-66
2020/12/08 09:46:49;;;;;;;22.92;13.57;;;10.60;99.90;;;;;;4989208;28;20105;-68
2020/12/08 09:49:16;;;;;;;26.40;15.10;;;10.60;99.90;;;;;;4987907;28;20058;-67
2020/12/08 09:51:43;;;;;;;28.30;14.63;;;10.90;99.90;;;;;;4986957;28;20046;-67
2020/12/08 09:54:10;;;;;;;23.00;13.75;;;11.40;99.90;;;;;;4986936;28;20046;-70
2020/12/08 09:56:37;;;;;;;23.52;14.77;;;11.70;99.90;;;;;;4987697;28;20443;-67
2020/12/08 09:59:04;;;;;;;25.88;15.30;;;11.50;99.90;;;;;;4987198;28;20108;-69
2020/12/08 10:01:32;;;;;;;25.35;15.70;;;11.40;99.90;;;;;;4979114;28;20054;-68
2020/12/08 10:03:59;;;;;;;27.45;14.68;;;11.40;99.90;;;;;;4985855;28;20112;-66
2020/12/08 10:06:26;;;;;;;24.15;13.68;;;11.50;99.90;;;;;;4980942;28;20058;-67
2020/12/08 10:08:54;;;;;;;21.63;13.60;;;11.50;99.90;;;;;;4971801;28;20055;-66
2020/12/08 10:11:22;;;;;;;24.08;15.23;;;12.10;99.90;;;;;;4970660;28;20050;-66
2020/12/08 10:13:49;;;;;;;22.92;13.48;;;12.40;99.90;;;;;;4972413;28;20523;-67
2020/12/08 10:16:19;;;;;;;28.40;14.40;;;13.10;99.90;;;;;;4990243;28;20061;-67
2020/12/08 10:18:46;;;;;;;19.42;12.30;;;14.10;99.90;;;;;;4990879;28;20569;-68
2020/12/08 10:21:14;;;;;;;21.98;13.15;;;14.50;99.90;;;;;;4989943;28;20061;-67
2020/12/08 10:23:40;;;;;;;19.13;12.02;;;13.80;99.90;;;;;;4991054;28;20053;-67
2020/12/08 10:26:09;;;;;;;19.73;13.20;;;14.10;99.90;;;;;;4990181;28;20058;-67
2020/12/08 10:28:37;;;;;;;19.25;12.52;;;14.10;99.90;;;;;;4990793;28;20093;-68
2020/12/08 10:31:04;;;;;;;22.25;13.27;;;13.00;99.90;;;;;;4989565;28;20077;-68
2020/12/08 10:33:33;;;;;;;20.05;12.27;;;12.60;99.90;;;;;;4990059;28;20050;-69
2020/12/08 10:36:00;;;;;;;19.95;13.20;;;12.00;99.90;;;;;;4990893;28;20050;-67
2020/12/08 10:38:27;;;;;;;24.10;13.43;;;11.80;99.90;;;;;;4989354;28;20573;-67
2020/12/08 10:40:55;;;;;;;26.52;13.90;;;11.60;99.90;;;;;;4990653;28;20050;-67
2020/12/08 10:43:22;;;;;;;20.85;12.73;;;11.60;99.90;;;;;;4986853;28;20606;-68
2020/12/08 10:45:55;;;;;;;22.40;12.18;;;11.40;99.90;;;;;;4979285;28;20504;-67
2020/12/08 10:48:22;;;;;;;19.45;12.30;;;11.00;99.90;;;;;;4986195;28;20055;-67
2020/12/08 10:50:49;;;;;;;20.83;12.75;;;11.00;99.90;;;;;;4988641;28;20050;-66
2020/12/08 10:53:15;;;;;;;21.65;13.80;;;11.10;99.90;;;;;;4977615;28;20082;-68
2020/12/08 10:55:42;;;;;;;22.60;12.30;;;10.90;99.90;;;;;;4983543;28;20058;-67
2020/12/08 10:58:09;;;;;;;22.98;13.23;;;11.10;99.90;;;;;;4973028;28;20059;-66
2020/12/08 11:00:35;;;;;;;21.50;13.18;;;11.30;99.90;;;;;;4988219;28;20228;-68
2020/12/08 11:03:03;;;;;;;20.27;12.10;;;11.20;99.90;;;;;;4986781;28;20047;-67
2020/12/08 11:05:30;;;;;;;22.92;12.20;;;11.60;99.90;;;;;;4988974;28;20426;-67
2020/12/08 11:07:57;;;;;;;23.75;13.75;;;11.80;99.90;;;;;;4992102;28;20057;-67
2020/12/08 11:10:24;;;;;;;22.60;12.85;;;11.80;99.90;;;;;;4989751;28;20050;-65
2020/12/08 11:12:51;;;;;;;22.23;12.65;;;11.90;99.90;;;;;;4990036;28;20054;-64
2020/12/08 11:15:17;;;;;;;21.77;12.98;;;11.80;99.90;;;;;;4990258;28;20450;-64
2020/12/08 11:17:44;;;;;;;24.70;12.60;;;11.80;99.90;;;;;;4990726;28;20100;-65
2020/12/08 11:20:12;;;;;;;21.63;12.45;;;11.90;99.90;;;;;;4987288;28;20388;-71
2020/12/08 11:22:38;;;;;;;20.83;12.02;;;12.10;99.90;;;;;;4981364;28;20059;-65
2020/12/08 11:25:05;;;;;;;22.02;13.10;;;11.70;99.90;;;;;;4990456;28;20057;-65
2020/12/08 11:27:32;;;;;;;24.05;13.02;;;11.30;99.90;;;;;;4987873;28;20500;-64
2020/12/08 11:29:59;;;;;;;24.42;13.18;;;11.20;99.90;;;;;;4989658;28;20058;-65
2020/12/08 11:32:25;;;;;;;20.75;11.90;;;11.30;99.90;;;;;;4990292;28;20046;-67
2020/12/08 11:34:52;;;;;;;22.60;12.38;;;10.80;99.90;;;;;;4984365;28;20053;-70
2020/12/08 11:37:20;;;;;;;22.88;12.13;;;11.10;99.90;;;;;;4982356;28;20451;-68
2020/12/08 11:39:46;;;;;;;21.48;11.35;;;10.90;99.90;;;;;;4991697;28;20081;-67
2020/12/08 11:42:14;;;;;;;23.85;12.82;;;10.60;99.90;;;;;;4975212;28;20504;-67
2020/12/08 11:44:42;;;;;;;20.63;12.02;;;10.40;99.90;;;;;;4990108;28;20451;-67
2020/12/08 11:47:09;;;;;;;23.92;12.85;;;10.40;99.90;;;;;;4982438;28;20419;-67
2020/12/08 11:49:37;;;;;;;22.92;13.05;;;10.10;99.90;;;;;;4989784;28;20047;-66
2020/12/08 11:52:19;;;;;;;28.85;13.30;;;10.20;99.90;;;;;;4992726;28;20050;-68
2020/12/08 11:54:48;;;;;;;23.98;12.75;;;10.20;99.90;;;;;;4977833;28;20057;-68
2020/12/08 11:57:18;;;;;;;27.00;12.38;;;10.10;99.90;;;;;;4979813;28;20090;-65
2020/12/08 11:59:44;;;;;;;23.88;13.40;;;10.30;99.90;;;;;;4991467;28;20545;-65
2020/12/08 12:02:11;;;;;;;21.33;12.20;;;10.20;99.90;;;;;;4973055;28;20051;-65
2020/12/08 12:04:38;;;;;;;21.75;12.95;;;10.30;99.90;;;;;;4972715;28;20047;-65
2020/12/08 12:07:04;;;;;;;25.52;12.40;;;10.30;99.90;;;;;;4971504;28;20061;-65
2020/12/08 12:09:31;;;;;;;18.90;11.43;;;10.80;99.90;;;;;;4986804;28;20054;-65
2020/12/08 12:12:00;;;;;;;26.85;12.27;;;11.00;99.90;;;;;;4989448;28;20129;-65
2020/12/08 12:14:26;;;;;;;25.58;13.05;;;10.90;99.90;;;;;;4991545;28;20046;-66
2020/12/08 12:16:53;;;;;;;26.00;12.65;;;11.00;99.90;;;;;;4983479;28;20054;-65
2020/12/08 12:19:19;;;;;;;24.13;12.65;;;11.50;99.90;;;;;;4985957;28;20476;-65
2020/12/08 12:21:46;;;;;;;25.95;12.13;;;11.50;99.90;;;;;;4988206;28;20109;-65
2020/12/08 12:24:13;;;;;;;26.58;13.27;;;12.20;99.90;;;;;;4991217;28;20061;-66
2020/12/08 12:26:39;;;;;;;21.55;11.30;;;12.90;99.90;;;;;;4992208;28;20127;-65
2020/12/08 12:29:07;;;;;;;23.42;11.70;;;13.60;99.90;;;;;;4991027;28;20073;-65
2020/12/08 12:31:34;;;;;;;27.25;13.48;;;14.40;99.90;;;;;;4990893;28;20057;-65
2020/12/08 12:34:00;;;;;;;28.92;12.65;;;15.40;99.90;;;;;;4991662;28;20099;-65
2020/12/08 12:36:27;;;;;;;26.02;12.90;;;15.70;99.90;;;;;;4989818;28;20054;-66